Time;durP1;ratioP1;P1;durP2;ratioP2;P2;SDS_P1;SDS_P2;PMS_P1;PMS_P2;Temp;Humidity;BMP_temperature;BMP_pressure;BME280_temperature;BME280_humidity;BME280_pressure;Samples;Min_cycle;Max_cycle;Signal;HPM_P1;HPM_P2
2022/11/02 00:00:40;;;;;;;14.38;3.95;;;;;;;6.84;100.00;96084.28;4990643;28;20038;-76
2022/11/02 00:03:25;;;;;;;10.80;3.75;;;;;;;6.82;100.00;96092.38;5014050;28;20046;-76
2022/11/02 00:05:50;;;;;;;10.65;4.30;;;;;;;6.75;100.00;96100.38;4993681;28;20085;-78
2022/11/02 00:08:16;;;;;;;15.15;4.10;;;;;;;6.74;100.00;96096.16;4992844;28;20045;-77
2022/11/02 00:10:41;;;;;;;10.43;3.88;;;;;;;6.65;100.00;96081.84;4994903;28;20038;-77
2022/11/02 00:13:07;;;;;;;15.15;4.20;;;;;;;6.68;100.00;96091.03;5010929;28;20099;-77
2022/11/02 00:15:35;;;;;;;16.10;4.88;;;;;;;6.67;100.00;96095.47;4995247;28;20049;-77
2022/11/02 00:18:07;;;;;;;11.82;4.05;;;;;;;6.69;100.00;96096.03;4990942;28;20046;-77
2022/11/02 00:20:35;;;;;;;10.77;4.10;;;;;;;6.61;100.00;96096.41;5009041;28;20037;-77
2022/11/02 00:23:01;;;;;;;13.68;4.50;;;;;;;6.71;100.00;96096.59;5011108;28;20042;-77
2022/11/02 00:25:28;;;;;;;14.57;4.15;;;;;;;6.68;100.00;96091.03;5011373;28;20041;-77
2022/11/02 00:27:53;;;;;;;14.05;4.70;;;;;;;6.58;100.00;96096.88;4993977;28;20096;-78
2022/11/02 00:30:19;;;;;;;10.65;4.15;;;;;;;6.56;100.00;96091.84;4993394;28;20038;-77
2022/11/02 00:32:45;;;;;;;9.02;4.03;;;;;;;6.57;100.00;96101.28;4975112;28;20118;-78
2022/11/02 00:35:11;;;;;;;10.73;4.05;;;;;;;6.60;100.00;96100.03;5007135;28;20037;-79
2022/11/02 00:37:36;;;;;;;9.30;3.55;;;;;;;6.53;100.00;96094.13;5006710;28;20523;-79
2022/11/02 00:40:03;;;;;;;8.55;3.97;;;;;;;6.49;100.00;96113.91;4993446;28;20414;-77
2022/11/02 00:42:28;;;;;;;11.00;4.60;;;;;;;6.48;100.00;96100.03;5012534;28;20053;-77
2022/11/02 00:44:54;;;;;;;10.25;3.85;;;;;;;6.45;100.00;96107.53;4994596;28;20053;-77
2022/11/02 00:47:19;;;;;;;7.65;3.72;;;;;;;6.43;100.00;96104.38;5012644;28;20049;-77
2022/11/02 00:49:45;;;;;;;10.98;4.15;;;;;;;6.40;100.00;96103.78;4997418;28;20038;-77
2022/11/02 00:52:10;;;;;;;10.25;4.40;;;;;;;6.36;100.00;96101.84;5026102;28;20071;-78
2022/11/02 00:54:35;;;;;;;13.32;4.65;;;;;;;6.36;100.00;96105.25;5004963;28;20499;-76
2022/11/02 00:57:01;;;;;;;11.13;4.30;;;;;;;6.28;100.00;96097.78;4996036;28;20065;-77
2022/11/02 00:59:26;;;;;;;13.52;4.00;;;;;;;6.25;100.00;96098.22;4984231;28;20050;-77
2022/11/02 01:01:52;;;;;;;15.05;4.00;;;;;;;6.27;100.00;96106.63;4995925;28;20046;-77
2022/11/02 01:04:17;;;;;;;12.50;3.53;;;;;;;6.23;100.00;96100.25;5013413;28;20034;-77
2022/11/02 01:06:44;;;;;;;9.73;4.20;;;;;;;6.24;100.00;96112.31;4996781;28;20100;-78
2022/11/02 01:09:11;;;;;;;16.25;5.22;;;;;;;6.21;100.00;96112.78;4993638;28;20049;-78
2022/11/02 01:11:38;;;;;;;10.18;4.22;;;;;;;6.21;100.00;96110.16;5009133;28;20045;-78
2022/11/02 01:14:04;;;;;;;12.63;4.78;;;;;;;6.22;100.00;96109.13;4978802;28;20049;-78
2022/11/02 01:16:32;;;;;;;9.07;3.80;;;;;;;6.14;100.00;96112.09;5005866;28;20442;-77
2022/11/02 01:18:58;;;;;;;10.70;3.80;;;;;;;6.18;100.00;96118.47;4995069;28;20038;-78
2022/11/02 01:21:24;;;;;;;9.77;3.90;;;;;;;6.13;100.00;96118.31;5015345;28;20080;-78
2022/11/02 01:23:50;;;;;;;10.35;4.65;;;;;;;6.05;100.00;96115.03;4998233;28;20091;-78
2022/11/02 01:26:16;;;;;;;13.95;3.97;;;;;;;6.00;100.00;96120.13;5015409;28;20042;-77
2022/11/02 01:28:42;;;;;;;13.75;4.57;;;;;;;5.99;100.00;96110.72;5006425;28;20045;-77
2022/11/02 01:31:09;;;;;;;13.77;4.40;;;;;;;6.02;100.00;96128.53;4998653;28;20041;-76
2022/11/02 01:33:34;;;;;;;9.98;3.88;;;;;;;5.96;100.00;96124.19;4994387;28;20043;-77
2022/11/02 01:36:05;;;;;;;8.95;3.97;;;;;;;5.93;100.00;96111.56;4977086;28;20401;-76
2022/11/02 01:38:32;;;;;;;9.38;3.97;;;;;;;5.94;100.00;96123.59;4994865;28;20092;-76
2022/11/02 01:40:58;;;;;;;13.82;4.25;;;;;;;5.94;100.00;96128.84;4995315;28;20156;-76
2022/11/02 01:43:35;;;;;;;11.80;4.47;;;;;;;5.94;100.00;96123.59;5012033;28;20050;-76
2022/11/02 01:46:07;;;;;;;10.23;3.75;;;;;;;5.89;100.00;96126.09;5011812;28;20064;-77
2022/11/02 01:48:37;;;;;;;9.27;3.97;;;;;;;5.80;100.00;96127.44;5010923;28;20117;-76
2022/11/02 01:51:09;;;;;;;11.05;3.80;;;;;;;5.69;100.00;96127.19;5003446;28;20049;-75
2022/11/02 01:53:40;;;;;;;9.18;3.83;;;;;;;5.69;100.00;96132.41;5012174;28;20491;-75
2022/11/02 01:56:06;;;;;;;7.80;3.95;;;;;;;5.70;100.00;96128.78;4992169;28;20034;-75
2022/11/02 01:58:34;;;;;;;15.50;4.35;;;;;;;5.72;100.00;96125.94;5012908;28;20054;-76
2022/11/02 02:00:59;;;;;;;14.23;3.97;;;;;;;5.72;100.00;96131.16;5007050;28;20053;-75
2022/11/02 02:03:28;;;;;;;11.38;4.45;;;;;;;5.70;100.00;96128.78;5016514;28;20038;-77
2022/11/02 02:05:59;;;;;;;11.18;3.85;;;;;;;5.66;100.00;96132.84;4985349;28;20044;-77
2022/11/02 02:08:27;;;;;;;15.40;4.07;;;;;;;5.71;100.00;96132.97;5013416;28;20049;-76
2022/11/02 02:10:56;;;;;;;14.10;4.00;;;;;;;5.83;100.00;96129.59;5011386;28;20113;-77
2022/11/02 02:13:24;;;;;;;11.93;4.57;;;;;;;5.87;100.00;96128.13;4995756;28;20038;-77
2022/11/02 02:16:01;;;;;;;12.07;4.63;;;;;;;5.93;100.00;96119.41;4980691;28;20101;-77
2022/11/02 02:18:47;;;;;;;16.75;4.03;;;;;;;6.01;100.00;96119.09;5004745;28;20112;-77
2022/11/02 02:21:32;;;;;;;10.10;4.28;;;;;;;6.00;100.00;96122.72;5012905;28;20037;-77
2022/11/02 02:24:13;;;;;;;10.65;4.45;;;;;;;5.96;100.00;96121.59;5020221;28;20461;-76
2022/11/02 02:26:58;;;;;;;10.40;3.88;;;;;;;5.96;100.00;96137.25;4993490;28;20045;-76
2022/11/02 02:29:34;;;;;;;9.65;4.43;;;;;;;6.07;100.00;96133.88;4981522;28;20053;-76
2022/11/02 02:32:08;;;;;;;9.23;4.15;;;;;;;6.06;100.00;96134.91;5009710;28;20522;-77
2022/11/02 02:34:43;;;;;;;18.98;4.50;;;;;;;5.97;100.00;96144.09;5000289;28;20077;-77
2022/11/02 02:37:25;;;;;;;11.43;5.10;;;;;;;5.95;100.00;96142.69;5020991;28;20058;-77
2022/11/02 02:40:00;;;;;;;13.95;4.70;;;;;;;5.87;100.00;96149.03;4988826;28;20505;-77
2022/11/02 02:42:39;;;;;;;21.48;5.97;;;;;;;5.86;100.00;96142.19;4997310;28;20042;-77
2022/11/02 02:45:43;;;;;;;15.05;4.20;;;;;;;5.93;100.00;96139.50;4996259;28;20053;-77
2022/11/02 02:48:17;;;;;;;11.77;4.43;;;;;;;5.97;100.00;96151.91;5006268;28;20563;-77
2022/11/02 02:50:48;;;;;;;13.15;4.47;;;;;;;6.03;100.00;96153.66;5013781;28;20042;-76
2022/11/02 02:53:16;;;;;;;8.73;4.18;;;;;;;6.07;100.00;96144.31;5011680;28;20042;-77
2022/11/02 02:55:48;;;;;;;9.82;4.40;;;;;;;6.16;100.00;96146.63;4979479;28;20066;-77
2022/11/02 02:58:24;;;;;;;14.63;4.43;;;;;;;6.23;100.00;96147.31;5019625;28;20078;-77
2022/11/02 03:00:54;;;;;;;10.70;4.20;;;;;;;6.28;100.00;96144.00;4992539;28;20038;-77
2022/11/02 03:03:24;;;;;;;19.08;5.22;;;;;;;6.34;100.00;96148.34;4994705;28;20038;-77
2022/11/02 03:06:08;;;;;;;10.18;4.28;;;;;;;6.45;100.00;96154.59;4993775;28;20034;-77
2022/11/02 03:08:36;;;;;;;13.52;4.47;;;;;;;6.49;100.00;96155.75;4996983;28;20105;-76
2022/11/02 03:11:13;;;;;;;11.13;4.15;;;;;;;6.53;100.00;96154.28;5011663;28;20085;-76
2022/11/02 03:13:53;;;;;;;8.98;4.00;;;;;;;6.61;100.00;96153.94;5006871;28;20126;-77
2022/11/02 03:16:49;;;;;;;11.63;4.20;;;;;;;6.68;100.00;96154.63;5029832;28;20506;-76
2022/11/02 03:19:38;;;;;;;13.93;4.30;;;;;;;6.70;100.00;96162.22;4995491;28;20042;-77
2022/11/02 03:22:15;;;;;;;16.40;4.28;;;;;;;6.82;100.00;96164.84;5010204;28;20042;-76
2022/11/02 03:24:53;;;;;;;8.48;3.75;;;;;;;6.91;100.00;96168.69;5012579;28;20038;-77
2022/11/02 03:27:28;;;;;;;17.52;5.05;;;;;;;7.04;100.00;96165.84;5017696;28;20063;-77
2022/11/02 03:30:00;;;;;;;;;;;;;;;7.17;100.00;96171.81;4995690;28;20104;-78
2022/11/02 03:32:28;;;;;;;9.95;4.72;;;;;;;7.20;100.00;96166.16;4993344;28;19922;-77
2022/11/02 03:34:57;;;;;;;14.80;4.60;;;;;;;7.23;100.00;96170.94;4993629;28;20050;-77
2022/11/02 03:37:38;;;;;;;9.43;4.07;;;;;;;7.30;100.00;96171.59;4981922;28;20046;-77
2022/11/02 03:40:13;;;;;;;13.43;4.72;;;;;;;7.45;100.00;96169.25;5005517;28;20050;-76
2022/11/02 03:42:41;;;;;;;13.55;4.82;;;;;;;7.56;100.00;96185.19;5011163;28;20423;-76
2022/11/02 03:45:14;;;;;;;9.57;4.30;;;;;;;7.61;100.00;96178.22;5008992;28;20045;-76
2022/11/02 03:47:44;;;;;;;16.67;4.70;;;;;;;7.69;100.00;96184.91;4992686;28;20414;-77
2022/11/02 03:50:12;;;;;;;16.08;4.72;;;;;;;7.79;100.00;96195.56;5008785;28;20049;-76
2022/11/02 03:52:43;;;;;;;15.02;4.75;;;;;;;7.75;100.00;96183.94;4992994;28;20030;-77
2022/11/02 03:55:15;;;;;;;13.95;5.10;;;;;;;7.74;100.00;96182.38;5010699;28;20045;-76
2022/11/02 03:57:51;;;;;;;23.50;4.93;;;;;;;7.68;100.00;96178.06;4994823;28;20049;-77
2022/11/02 04:00:22;;;;;;;12.90;4.65;;;;;;;7.61;100.00;96182.63;4990656;28;20038;-76
2022/11/02 04:02:51;;;;;;;13.75;4.82;;;;;;;7.54;100.00;96187.22;4991615;28;20034;-76
2022/11/02 04:05:17;;;;;;;13.15;4.82;;;;;;;7.45;100.00;96190.19;5002275;28;20503;-76
2022/11/02 04:10:33;;;;;;;14.57;5.38;;;;;;;7.36;100.00;96202.06;5016796;28;20034;-76
2022/11/02 04:15:43;;;;;;;12.65;4.82;;;;;;;7.17;100.00;96198.00;5028953;28;20045;-77
2022/11/02 04:20:52;;;;;;;12.05;5.20;;;;;;;7.13;100.00;96194.28;4993956;28;20117;-76
2022/11/02 04:26:03;;;;;;;15.30;5.32;;;;;;;7.07;100.00;96191.53;5008698;28;20062;-78
2022/11/02 04:28:28;;;;;;;17.55;5.22;;;;;;;7.06;100.00;96200.41;5014907;28;20042;-78
2022/11/02 04:30:56;;;;;;;13.02;5.13;;;;;;;7.05;100.00;96201.47;4999725;28;20049;-78
2022/11/02 04:33:34;;;;;;;14.65;5.13;;;;;;;7.00;100.00;96196.09;5015205;28;20080;-79
2022/11/02 04:36:06;;;;;;;17.42;5.10;;;;;;;7.00;100.00;96198.72;5015833;28;20069;-78
2022/11/02 04:38:40;;;;;;;13.43;5.38;;;;;;;6.98;100.00;96200.75;5014752;28;20442;-79
2022/11/02 04:41:41;;;;;;;14.15;5.35;;;;;;;6.96;100.00;96181.88;5011201;28;20038;-78
2022/11/02 04:44:09;;;;;;;12.15;5.30;;;;;;;7.01;100.00;96184.63;5010865;28;20077;-80
2022/11/02 04:46:36;;;;;;;13.57;5.28;;;;;;;6.98;100.00;96182.44;5017838;28;20056;-78
2022/11/02 04:49:03;;;;;;;13.18;5.10;;;;;;;6.96;100.00;96171.41;5009030;28;20097;-79
2022/11/02 04:51:29;;;;;;;11.52;4.63;;;;;;;7.00;100.00;96177.78;5016984;28;20076;-78
2022/11/02 04:53:56;;;;;;;16.15;5.28;;;;;;;7.02;100.00;96183.56;5006650;28;20038;-79
2022/11/02 04:56:23;;;;;;;18.85;5.03;;;;;;;6.93;100.00;96177.13;5012243;28;20117;-78
2022/11/02 04:58:53;;;;;;;14.15;5.07;;;;;;;6.98;100.00;96177.22;5013343;28;20046;-77
2022/11/02 05:01:20;;;;;;;16.30;5.20;;;;;;;6.98;100.00;96179.81;5012902;28;20068;-76
2022/11/02 05:03:49;;;;;;;15.73;5.43;;;;;;;6.93;100.00;96177.13;5010406;28;20045;-76
2022/11/02 05:06:16;;;;;;;12.32;4.97;;;;;;;6.93;100.00;96187.59;5014838;28;20528;-77
2022/11/02 05:08:42;;;;;;;13.15;5.13;;;;;;;6.99;100.00;96176.19;5015744;28;20038;-79
2022/11/02 05:11:08;;;;;;;14.00;5.00;;;;;;;6.86;100.00;96197.38;5027816;28;20033;-77
2022/11/02 05:13:35;;;;;;;17.88;5.90;;;;;;;6.87;100.00;96193.75;5018134;28;20050;-77
2022/11/02 05:16:00;;;;;;;15.27;6.05;;;;;;;6.94;100.00;96186.56;5002436;28;20057;-76
2022/11/02 05:18:26;;;;;;;20.73;6.07;;;;;;;6.91;100.00;96194.84;5007973;28;20069;-76
2022/11/02 05:20:54;;;;;;;14.55;5.75;;;;;;;7.01;100.00;96189.84;5013643;28;20061;-76
2022/11/02 05:23:21;;;;;;;17.42;6.40;;;;;;;6.98;100.00;96184.28;5011674;28;20049;-76
2022/11/02 05:25:59;;;;;;;13.43;5.18;;;;;;;7.03;100.00;96193.03;5009066;28;20046;-76
2022/11/02 05:28:26;;;;;;;16.88;6.22;;;;;;;7.06;100.00;96189.16;4997900;28;20100;-76
2022/11/02 05:30:52;;;;;;;11.05;5.45;;;;;;;7.09;100.00;96180.84;4993759;28;20034;-76
2022/11/02 05:33:18;;;;;;;21.70;6.40;;;;;;;7.10;100.00;96188.47;4991635;28;20042;-76
2022/11/02 05:35:43;;;;;;;14.45;5.95;;;;;;;7.07;100.00;96181.06;5009309;28;20046;-77
2022/11/02 05:38:09;;;;;;;14.93;5.30;;;;;;;7.12;100.00;96188.22;5019872;28;20046;-77
2022/11/02 05:40:39;;;;;;;19.45;6.10;;;;;;;7.16;100.00;96186.75;4997234;28;20050;-77
2022/11/02 05:43:08;;;;;;;12.50;6.13;;;;;;;7.09;100.00;96186.88;4997089;28;20053;-77
2022/11/02 05:45:35;;;;;;;18.05;5.57;;;;;;;7.07;100.00;96183.69;4995666;28;20046;-76
2022/11/02 05:48:02;;;;;;;18.83;7.15;;;;;;;7.05;100.00;96180.53;5028164;28;20103;-77
2022/11/02 05:50:28;;;;;;;18.88;6.78;;;;;;;7.07;100.00;96183.69;5016491;28;20049;-77
2022/11/02 05:52:54;;;;;;;25.60;7.28;;;;;;;7.11;100.00;96179.59;5012092;28;20053;-77
2022/11/02 05:55:20;;;;;;;16.73;7.00;;;;;;;7.16;100.00;96183.34;5014188;28;20049;-77
2022/11/02 05:57:53;;;;;;;22.50;6.90;;;;;;;7.27;100.00;96187.78;5003389;28;20076;-77
2022/11/02 06:00:19;;;;;;;16.33;6.32;;;;;;;7.29;100.00;96196.19;5006176;28;20042;-78
2022/11/02 06:02:46;;;;;;;19.25;6.97;;;;;;;7.28;100.00;96194.56;5005419;28;20049;-78
2022/11/02 06:05:12;;;;;;;15.30;6.18;;;;;;;7.28;100.00;96197.19;4992356;28;20105;-78
2022/11/02 06:07:37;;;;;;;24.25;6.82;;;;;;;7.30;100.00;96200.41;4999291;28;20052;-77
2022/11/02 06:10:03;;;;;;;19.25;7.15;;;;;;;7.30;100.00;96205.63;4993994;28;20046;-77
2022/11/02 06:12:28;;;;;;;21.58;6.85;;;;;;;7.32;100.00;96211.41;5013224;28;20049;-78
2022/11/02 06:14:54;;;;;;;17.88;5.85;;;;;;;7.37;100.00;96219.38;4992047;28;20049;-78
2022/11/02 06:17:20;;;;;;;15.93;5.90;;;;;;;7.39;100.00;96219.94;4986576;28;20400;-77
2022/11/02 06:19:45;;;;;;;19.50;6.45;;;;;;;7.39;100.00;96219.94;5006773;28;20060;-77
2022/11/02 06:22:11;;;;;;;20.38;6.25;;;;;;;7.44;100.00;96224.47;5014766;28;20044;-77
2022/11/02 06:24:36;;;;;;;23.33;6.38;;;;;;;7.58;100.00;96225.03;5000519;28;20056;-77
2022/11/02 06:27:01;;;;;;;23.45;7.53;;;;;;;7.69;100.00;96221.56;5014787;28;20053;-77
2022/11/02 06:29:27;;;;;;;18.92;7.40;;;;;;;7.68;100.00;96233.06;5012024;28;20144;-75
2022/11/02 06:31:52;;;;;;;17.20;6.82;;;;;;;7.82;100.00;96230.19;5006983;28;20388;-77
2022/11/02 06:34:18;;;;;;;18.73;6.30;;;;;;;7.88;100.00;96229.25;5011395;28;20053;-76
2022/11/02 06:36:43;;;;;;;18.17;6.22;;;;;;;7.88;100.00;96226.63;5014867;28;20046;-78
2022/11/02 06:39:09;;;;;;;15.02;6.80;;;;;;;7.86;100.00;96236.53;4996950;28;20038;-79
2022/11/02 06:41:34;;;;;;;16.65;6.72;;;;;;;7.90;100.00;96237.66;5012389;28;20053;-73
2022/11/02 06:44:00;;;;;;;18.02;6.00;;;;;;;7.89;100.00;96238.72;5011359;28;20038;-74
2022/11/02 06:46:25;;;;;;;14.68;5.85;;;;;;;7.86;100.00;96236.53;5010292;28;20034;-76
2022/11/02 06:48:51;;;;;;;24.92;6.18;;;;;;;7.98;100.00;96245.16;5010636;28;20041;-79
2022/11/02 06:51:17;;;;;;;17.13;5.63;;;;;;;7.99;100.00;96252.00;5012162;28;20132;-76
2022/11/02 06:53:43;;;;;;;17.38;6.55;;;;;;;7.94;100.00;96252.72;5012469;28;20551;-78
2022/11/02 06:56:09;;;;;;;13.52;5.75;;;;;;;7.99;100.00;96257.25;4996317;28;20081;-78
2022/11/02 06:58:34;;;;;;;17.45;6.22;;;;;;;8.21;100.00;96253.97;5027613;28;20593;-78
2022/11/02 07:01:04;;;;;;;14.13;5.70;;;;;;;8.33;100.00;96259.94;5005483;28;20403;-79
2022/11/02 07:03:30;;;;;;;13.95;6.13;;;;;;;8.44;100.00;96256.47;5023542;28;20038;-79
2022/11/02 07:05:56;;;;;;;18.23;6.05;;;;;;;8.57;100.00;96265.09;5015051;28;20052;-80
2022/11/02 07:08:22;;;;;;;14.55;5.88;;;;;;;8.61;100.00;96259.13;5021353;28;20037;-79
2022/11/02 07:10:48;;;;;;;14.52;5.72;;;;;;;8.69;100.00;96262.38;5012416;28;20038;-78
2022/11/02 07:13:14;;;;;;;15.68;6.20;;;;;;;8.63;100.00;96261.50;5007533;28;20045;-76
2022/11/02 07:15:39;;;;;;;16.88;5.93;;;;;;;8.79;100.00;96268.59;5012815;28;20060;-79
2022/11/02 07:18:05;;;;;;;15.43;5.15;;;;;;;8.78;100.00;96267.00;5009180;28;20045;-77
2022/11/02 07:20:32;;;;;;;15.98;5.15;;;;;;;8.74;100.00;96267.72;4995860;28;20392;-77
2022/11/02 07:22:59;;;;;;;15.27;5.85;;;;;;;8.61;100.00;96268.84;5012630;28;20042;-80
2022/11/02 07:25:27;;;;;;;15.57;5.30;;;;;;;8.63;100.00;96272.00;4985683;28;20041;-77
2022/11/02 07:27:53;;;;;;;14.75;5.07;;;;;;;8.57;100.00;96279.00;5012737;28;20038;-78
2022/11/02 07:30:19;;;;;;;20.38;5.72;;;;;;;8.64;100.00;96273.59;5015668;28;20045;-77
2022/11/02 07:32:45;;;;;;;17.00;6.07;;;;;;;8.91;100.00;96270.34;5011642;28;20099;-77
2022/11/02 07:35:12;;;;;;;13.38;5.57;;;;;;;9.12;100.00;96264.38;5010961;28;20045;-78
2022/11/02 07:37:38;;;;;;;13.43;5.15;;;;;;;9.40;100.00;96262.63;5008571;28;20054;-79
2022/11/02 07:40:06;;;;;;;17.40;5.63;;;;;;;9.61;100.00;96266.31;5007874;28;20045;-78
2022/11/02 07:42:32;;;;;;;18.38;5.55;;;;;;;9.67;100.00;96275.06;5025844;28;20455;-78
2022/11/02 07:44:57;;;;;;;12.18;5.10;;;;;;;9.91;100.00;96272.97;5016511;28;20120;-78
2022/11/02 07:47:23;;;;;;;12.18;4.47;;;;;;;10.03;100.00;96272.84;4993109;28;20173;-78
2022/11/02 07:49:48;;;;;;;15.43;5.38;;;;;;;10.19;100.00;96271.94;5014077;28;20048;-78
2022/11/02 07:52:14;;;;;;;11.88;5.05;;;;;;;10.31;100.00;96271.00;5008804;28;20045;-76
2022/11/02 07:54:39;;;;;;;9.90;4.43;;;;;;;10.44;100.00;96268.00;5009694;28;20057;-75
2022/11/02 07:57:05;;;;;;;13.98;5.05;;;;;;;10.64;100.00;96271.88;5012208;28;20038;-76
2022/11/02 07:59:30;;;;;;;10.85;4.40;;;;;;;10.74;100.00;96269.31;5006866;28;20096;-76
2022/11/02 08:01:56;;;;;;;15.65;4.22;;;;;;;10.69;100.00;96271.91;5014118;28;20052;-75
2022/11/02 08:04:22;;;;;;;10.82;4.35;;;;;;;10.64;100.00;96282.41;5015908;28;20080;-77
2022/11/02 08:06:47;;;;;;;16.58;4.85;;;;;;;10.73;100.00;96271.16;5009981;28;20042;-78
2022/11/02 08:09:14;;;;;;;14.98;5.95;;;;;;;10.79;100.00;96269.38;5009727;28;20034;-77
2022/11/02 08:11:59;;;;;;;11.32;4.50;;;;;;;10.84;100.00;96277.28;5002372;28;20145;-77
2022/11/02 08:14:25;;;;;;;13.93;4.22;;;;;;;10.81;100.00;96285.69;5017663;28;20034;-77
2022/11/02 08:16:51;;;;;;;10.45;4.20;;;;;;;10.79;100.00;96279.91;5024966;28;20037;-77
2022/11/02 08:19:16;;;;;;;9.68;3.60;;;;;;;10.73;100.00;96280.88;5020003;28;20049;-77
2022/11/02 08:21:42;;;;;;;10.10;4.15;;;;;;;10.76;100.00;96280.41;5019139;28;20530;-77
2022/11/02 08:24:07;;;;;;;11.48;4.40;;;;;;;10.91;100.00;96283.13;4992860;28;20038;-77
2022/11/02 08:26:33;;;;;;;12.60;4.18;;;;;;;10.88;100.00;96288.91;5010218;28;20101;-77
2022/11/02 08:28:59;;;;;;;10.77;4.00;;;;;;;10.97;100.00;96291.09;5009649;28;20049;-77
2022/11/02 08:31:24;;;;;;;12.63;4.60;;;;;;;11.02;100.00;96293.72;5026274;28;20048;-77
2022/11/02 08:33:50;;;;;;;13.20;4.20;;;;;;;11.01;100.00;96287.69;5011987;28;20058;-77
2022/11/02 08:36:15;;;;;;;12.13;4.43;;;;;;;11.07;100.00;96291.16;5012729;28;20045;-77
2022/11/02 08:38:41;;;;;;;14.45;4.60;;;;;;;11.26;100.00;96289.72;5002816;28;20595;-77
2022/11/02 08:41:07;;;;;;;11.45;4.00;;;;;;;11.48;100.00;96285.34;5010713;28;20518;-77
2022/11/02 08:43:33;;;;;;;17.20;3.90;;;;;;;11.81;100.00;96278.91;4995272;28;20046;-77
2022/11/02 08:45:59;;;;;;;13.02;3.80;;;;;;;12.03;100.00;96285.88;5006952;28;20124;-76
2022/11/02 08:48:26;;;;;;;11.43;3.83;;;;;;;12.23;100.00;96270.09;5009692;28;20045;-77
2022/11/02 08:50:51;;;;;;;9.85;3.50;;;;;;;12.51;100.00;96275.94;5013539;28;20046;-77
2022/11/02 08:53:17;;;;;;;12.18;3.30;;;;;;;12.88;100.00;96269.63;5007585;28;20037;-77
2022/11/02 08:55:43;;;;;;;9.10;3.15;;;;;;;12.86;100.00;96274.38;5011260;28;20038;-77
2022/11/02 08:58:08;;;;;;;9.77;3.38;;;;;;;12.96;100.00;96271.72;5010790;28;20053;-78
2022/11/02 09:00:34;;;;;;;11.38;3.22;;;;;;;12.93;100.00;96274.91;5011736;28;20050;-77
2022/11/02 09:03:00;;;;;;;10.13;3.08;;;;;;;12.95;100.00;96280.69;5011099;28;20112;-77
2022/11/02 09:05:27;;;;;;;12.73;3.30;;;;;;;12.83;100.00;96285.47;5011876;28;20045;-78
2022/11/02 09:07:58;;;;;;;8.40;2.83;;;;;;;12.91;100.00;96290.22;5013911;28;20503;-77
2022/11/02 09:10:23;;;;;;;10.23;3.10;;;;;;;12.97;100.00;96283.91;5015089;28;20080;-78
2022/11/02 09:12:49;;;;;;;10.82;3.10;;;;;;;13.07;100.00;96287.56;4997255;28;20038;-78
2022/11/02 09:15:14;;;;;;;12.45;3.50;;;;;;;13.14;100.00;96288.88;5013925;28;20042;-78
2022/11/02 09:17:40;;;;;;;11.05;3.70;;;;;;;13.10;100.00;96292.31;5013953;28;20525;-78
2022/11/02 09:20:06;;;;;;;13.10;3.38;;;;;;;13.16;100.00;96292.06;4996664;28;20044;-78
2022/11/02 09:22:31;;;;;;;12.32;3.00;;;;;;;13.35;100.00;96294.19;5014066;28;20134;-78
2022/11/02 09:24:57;;;;;;;12.70;2.80;;;;;;;13.49;100.00;96284.63;5012900;28;20551;-78
2022/11/02 09:27:22;;;;;;;5.55;2.40;;;;;;;13.41;100.00;96293.09;4996381;28;20092;-78
2022/11/02 09:29:48;;;;;;;11.43;3.15;;;;;;;13.45;100.00;96296.00;5011702;28;20100;-77
2022/11/02 09:32:13;;;;;;;14.23;3.13;;;;;;;13.46;100.00;96310.78;5013133;28;20046;-77
2022/11/02 09:34:39;;;;;;;7.50;2.33;;;;;;;13.89;100.00;96292.69;5013016;28;20061;-78
2022/11/02 09:37:05;;;;;;;6.40;2.50;;;;;;;13.74;100.00;96296.19;5012298;28;20060;-78
2022/11/02 09:39:30;;;;;;;18.38;2.70;;;;;;;13.75;100.00;96304.91;5013133;28;20068;-78
2022/11/02 09:42:11;;;;;;;8.88;2.58;;;;;;;13.76;100.00;96303.84;5013861;28;20380;-78
2022/11/02 09:44:56;;;;;;;16.50;2.83;;;;;;;13.83;100.00;96304.34;5007802;28;20096;-77
2022/11/02 09:47:25;;;;;;;11.40;2.33;;;;;;;13.96;100.00;96309.06;5011869;28;21241;-78
2022/11/02 09:49:52;;;;;;;13.32;2.75;;;;;;;14.06;100.00;96302.16;5020977;28;20511;-77
2022/11/02 09:52:37;;;;;;;8.50;2.58;;;;;;;14.38;100.00;96305.16;5017327;28;20042;-78
2022/11/02 09:55:20;;;;;;;10.40;3.03;;;;;;;14.15;100.00;96308.44;5002130;28;20042;-77
2022/11/02 09:57:52;;;;;;;13.07;2.40;;;;;;;14.16;100.00;96302.09;5013286;28;20149;-78
2022/11/02 10:00:17;;;;;;;15.27;2.88;;;;;;;14.08;100.00;96310.59;4997827;28;20093;-77
2022/11/02 10:03:21;;;;;;;15.32;2.50;;;;;;;13.97;100.00;96318.59;5014304;28;20502;-78
2022/11/02 10:05:54;;;;;;;12.23;2.13;;;;;;;14.00;100.00;96315.38;4992608;28;20076;-76
2022/11/02 10:08:25;;;;;;;16.23;2.42;;;;;;;13.91;100.00;96317.03;5017667;28;20569;-77
2022/11/02 10:11:18;;;;;;;12.25;2.60;;;;;;;14.08;100.00;96321.19;5008140;28;20060;-78
2022/11/02 10:13:52;;;;;;;12.60;3.15;;;;;;;14.26;100.00;96317.16;5015426;28;20046;-78
2022/11/02 10:16:26;;;;;;;14.50;2.85;;;;;;;14.79;100.00;96324.53;5008109;28;20041;-78
2022/11/02 10:18:53;;;;;;;;;;;;;;;14.33;100.00;96321.06;5002224;28;20046;-77
2022/11/02 10:21:21;;;;;;;9.77;2.60;;;;;;;14.36;100.00;96323.16;5012575;28;19964;-77
2022/11/02 10:23:52;;;;;;;11.35;2.33;;;;;;;14.31;100.00;96320.56;5002121;28;20041;-78
2022/11/02 10:26:22;;;;;;;7.30;2.10;;;;;;;14.28;100.00;96318.47;4995705;28;20050;-78
2022/11/02 10:28:56;;;;;;;7.65;2.35;;;;;;;14.28;100.00;96320.28;4996803;28;20444;-78
2022/11/02 10:31:28;;;;;;;10.60;2.63;;;;;;;14.18;100.00;96321.16;4994097;28;20042;-78
2022/11/02 10:33:56;;;;;;;11.25;2.28;;;;;;;14.26;100.00;96317.16;5012243;28;20030;-77
2022/11/02 10:36:47;;;;;;;8.05;2.28;;;;;;;14.28;100.00;96315.81;4992088;28;20038;-77
2022/11/02 10:39:33;;;;;;;17.58;2.35;;;;;;;14.25;100.00;96328.78;5013900;28;20047;-77
2022/11/02 10:41:59;;;;;;;11.43;2.53;;;;;;;14.07;100.00;96315.09;4990271;28;20507;-77
2022/11/02 10:44:39;;;;;;;7.80;1.98;;;;;;;14.24;100.00;96325.34;5011276;28;20037;-78
2022/11/02 10:47:12;;;;;;;8.05;2.15;;;;;;;14.26;100.00;96325.88;5003192;28;20041;-79
2022/11/02 10:50:11;;;;;;;10.30;2.45;;;;;;;14.44;100.00;96328.94;5011194;28;20042;-78
2022/11/02 10:52:39;;;;;;;12.05;2.65;;;;;;;14.16;100.00;96323.28;5011586;28;20557;-78
2022/11/02 10:55:13;;;;;;;12.63;2.25;;;;;;;14.30;100.00;96324.25;4990986;28;20039;-79
2022/11/02 10:57:38;;;;;;;8.65;2.33;;;;;;;14.45;100.00;96323.41;5010862;28;20052;-78
2022/11/02 11:00:28;;;;;;;9.60;2.20;;;;;;;14.51;99.93;96313.53;5003445;28;20101;-77
2022/11/02 11:03:05;;;;;;;6.40;2.13;;;;;;;14.71;94.09;96313.47;5007298;28;20038;-77
2022/11/02 11:05:33;;;;;;;7.90;1.95;;;;;;;14.44;93.13;96313.88;5012485;28;20037;-77
2022/11/02 11:07:59;;;;;;;5.93;1.50;;;;;;;14.35;94.21;96311.00;5002270;28;20057;-78
2022/11/02 11:10:26;;;;;;;7.35;1.77;;;;;;;14.32;92.04;96306.25;4991557;28;20096;-77
2022/11/02 11:12:54;;;;;;;7.25;1.55;;;;;;;14.40;93.38;96306.75;5008599;28;20034;-77
2022/11/02 11:15:23;;;;;;;11.07;1.67;;;;;;;14.35;93.04;96308.34;4990673;28;20105;-75
2022/11/02 11:17:50;;;;;;;7.90;1.95;;;;;;;14.51;92.99;96311.72;5009110;28;20125;-75
2022/11/02 11:20:24;;;;;;;9.15;2.05;;;;;;;14.71;92.01;96308.16;5011936;28;20044;-76
2022/11/02 11:23:18;;;;;;;10.88;1.90;;;;;;;14.78;92.62;96307.81;5011693;28;20045;-75
2022/11/02 11:25:55;;;;;;;13.65;1.95;;;;;;;14.90;89.06;96310.16;4993976;28;20042;-76
2022/11/02 11:28:31;;;;;;;4.55;1.52;;;;;;;15.07;88.52;96302.56;4996820;28;20031;-75
2022/11/02 11:31:07;;;;;;;8.73;1.70;;;;;;;15.15;87.68;96300.41;5015084;28;20508;-75
2022/11/02 11:34:00;;;;;;;12.02;2.00;;;;;;;15.28;87.05;96298.97;5005717;28;20045;-75
2022/11/02 11:36:32;;;;;;;8.57;1.85;;;;;;;15.13;90.17;96299.88;5008940;28;20042;-77
2022/11/02 11:39:01;;;;;;;5.60;1.52;;;;;;;15.15;87.25;96300.41;5004786;28;20115;-75
2022/11/02 11:41:30;;;;;;;7.78;1.75;;;;;;;14.90;89.49;96295.03;5016085;28;20310;-76
2022/11/02 11:43:56;;;;;;;6.82;1.80;;;;;;;14.54;87.33;96307.72;4992500;28;20038;-76
2022/11/02 11:46:22;;;;;;;8.60;1.92;;;;;;;14.58;87.08;96298.13;5006954;28;20038;-76